Sioux Lookout Airport
CYXL : now visible

Airfield :











YOU CAN JOIN US ON...

 
LOGIN :

Register | Disclaimer

   EN    FR    IT 

 









Legend :    VFR   Marginal VFR   IFR   Intensive IFR   Very Intensive IFR
Visi :
Ceiling :
>= 8 km
>= 3000ft
5 to 8 km
1000 to 3000 ft
1500m to 5 km
500 to 1000 ft
800 to 1500m
200 to 500 ft
< 800m
< 200 ft
Symbols :   Thunderstorms  Fog  Heavy snow  Heavy precipitations  Wind > 20 kt






- Airport Elevation : 1258 ft
- IATA code : YXL


CYXL - Sioux Lookout

CURRENT METAR :
  • 231400Z 22003KT 15SM BKN110 BKN160 M05/M09 A2950 RMK AC5AC2 SLP017

EXPIRED METARs :
  • 231300Z 15007KT 15SM BKN110 OVC160 M04/M09 A2950 RMK AC7AS1 PRESFR SLP014
  • 231200Z 16003KT 15SM BKN130 M03/M09 A2953 RMK AC7 SLP023

TAF TAF CYXL
Valid from the 23 at 14:00 until the 24 at 02:00 UTC


231339Z 2314/2402 15007KT P6SM OVC110
TEMPO 2314/2320 5SM -SN BKN020 OVC110
FM232000 27010G20KT 11/2SM -SN OVC015
TEMPO 2320/2402 6SM -SN RMK NXT FCST BY 232000Z



MET'MAP, your aeronautical weather chart ! - Copyright ORBIFLY December 2007 - Disclaimer

ORBIFLY MET'MAP TEAM :

Programming & Development : Alexandra Zaïnal
Concept & original design : Baudouin d'Aumeries
Assistance for programming : Marc-Olivier Méhu
Technical & hardware support : Manuel Goepfert

Contact : metmap@orbifly.com




SOURCES & CREDITS :

   NOAA       Earth
Advisory